createdAt,value
2023-03-24T00:05:16.566Z,4.53
2023-03-24T00:07:19.433Z,5.45
2023-03-24T00:09:21.006Z,5.93
2023-03-24T00:11:22.467Z,4.18
2023-03-24T00:13:24.009Z,3.80
2023-03-24T00:15:25.836Z,5.22
2023-03-24T00:17:29.551Z,3.95
2023-03-24T00:19:31.089Z,4.57
2023-03-24T00:21:33.281Z,4.85
2023-03-24T00:23:35.111Z,3.55
2023-03-24T00:25:40.235Z,4.32
2023-03-24T00:27:48.835Z,7.40
2023-03-24T00:29:50.538Z,5.65
2023-03-24T00:31:52.928Z,6.80
2023-03-24T00:33:54.713Z,4.25
2023-03-24T00:36:14.755Z,4.85
2023-03-24T00:38:16.223Z,3.88
2023-03-24T00:40:19.329Z,4.88
2023-03-24T00:42:24.682Z,4.65
2023-03-24T00:44:26.160Z,4.20
2023-03-24T00:46:30.856Z,5.32
2023-03-24T00:48:35.389Z,5.72
2023-03-24T00:50:39.645Z,4.68
2023-03-24T00:52:44.166Z,4.10
2023-03-24T00:54:46.022Z,5.78
2023-03-24T00:56:49.833Z,5.15
2023-03-24T00:58:57.819Z,5.40
2023-03-24T01:03:22.115Z,4.53
2023-03-24T01:05:28.118Z,5.22
2023-03-24T01:07:32.670Z,4.65
2023-03-24T01:13:41.962Z,5.45
2023-03-24T01:15:46.394Z,5.32
2023-03-24T01:17:53.496Z,5.25
2023-03-24T01:21:56.392Z,5.53
2023-03-24T01:26:07.650Z,4.43
2023-03-24T01:28:09.100Z,7.70
2023-03-24T01:30:13.134Z,6.35
2023-03-24T01:36:23.230Z,4.57
2023-03-24T01:40:28.090Z,6.05
2023-03-24T01:42:32.817Z,6.88
2023-03-24T01:44:38.249Z,6.45
2023-03-24T01:46:39.792Z,6.18
2023-03-24T01:48:50.764Z,5.80
2023-03-24T01:51:03.135Z,4.85
2023-03-24T01:53:23.799Z,4.57
2023-03-24T01:55:28.389Z,5.45
2023-03-24T01:57:30.864Z,6.43
2023-03-24T01:59:36.212Z,5.68
2023-03-24T02:01:38.344Z,5.60
2023-03-24T02:03:40.434Z,5.82
2023-03-24T02:05:46.060Z,6.10
2023-03-24T02:08:12.529Z,7.60
2023-03-24T02:10:15.739Z,4.70
2023-03-24T02:12:20.707Z,4.75
2023-03-24T02:14:22.839Z,9.15
2023-03-24T02:16:24.484Z,5.72
2023-03-24T02:18:33.188Z,5.25
2023-03-24T02:21:04.753Z,5.78
2023-03-24T02:23:18.351Z,6.55
2023-03-24T02:27:52.643Z,5.55
2023-03-24T02:30:00.409Z,6.00
2023-03-24T02:32:12.711Z,8.30
2023-03-24T02:34:37.346Z,7.10
2023-03-24T02:36:55.358Z,7.80
2023-03-24T02:39:16.266Z,5.18
2023-03-24T02:41:17.869Z,5.10
2023-03-24T02:43:44.999Z,7.43
2023-03-24T02:46:18.940Z,7.57
2023-03-24T02:48:26.319Z,10.50
2023-03-24T02:51:05.333Z,6.57
2023-03-24T02:53:13.117Z,6.55
2023-03-24T02:55:31.643Z,6.40
2023-03-24T02:57:36.356Z,5.45
2023-03-24T02:59:46.813Z,7.88
2023-03-24T03:06:08.320Z,6.45
2023-03-24T03:10:35.789Z,8.52
2023-03-24T03:12:38.130Z,8.35
2023-03-24T03:14:51.192Z,5.63
2023-03-24T03:17:00.394Z,5.20
2023-03-24T03:19:09.889Z,6.30
2023-03-24T03:21:13.195Z,8.45
2023-03-24T03:23:15.731Z,6.73
2023-03-24T03:25:25.609Z,7.13
2023-03-24T03:27:46.896Z,6.05
2023-03-24T03:29:51.506Z,6.75
2023-03-24T03:31:59.698Z,5.95
2023-03-24T03:34:22.423Z,6.93
2023-03-24T03:36:29.215Z,4.97
2023-03-24T03:38:33.455Z,4.80
2023-03-24T03:40:41.340Z,5.00
2023-03-24T03:43:02.249Z,5.20
2023-03-24T03:45:10.249Z,4.65
2023-03-24T03:47:15.892Z,5.57
2023-03-24T03:49:17.382Z,6.18
2023-03-24T03:51:21.946Z,5.30
2023-03-24T03:53:33.847Z,3.97
2023-03-24T03:55:36.083Z,5.03
2023-03-24T03:57:43.320Z,3.95
2023-03-24T03:59:44.873Z,6.00
2023-03-24T04:01:49.588Z,5.32
2023-03-24T04:04:02.762Z,6.45
2023-03-24T04:06:16.131Z,6.47
2023-03-24T04:08:17.827Z,4.63
2023-03-24T04:10:19.516Z,8.57
2023-03-24T04:12:37.824Z,5.65
2023-03-24T04:16:52.933Z,4.75
2023-03-24T04:25:32.224Z,7.18
2023-03-24T04:27:40.265Z,4.22
2023-03-24T04:29:55.297Z,5.20
2023-03-24T04:32:02.820Z,5.70
2023-03-24T04:34:12.198Z,4.47
2023-03-24T04:36:22.652Z,7.70
2023-03-24T04:38:27.855Z,5.85
2023-03-24T04:40:33.148Z,4.65
2023-03-24T04:42:46.753Z,4.50
2023-03-24T04:44:51.411Z,6.47
2023-03-24T04:46:57.873Z,5.82
2023-03-24T04:49:03.539Z,5.82
2023-03-24T04:51:09.235Z,6.35
2023-03-24T04:53:13.630Z,5.53
2023-03-24T04:55:32.163Z,6.53
2023-03-24T04:57:33.764Z,5.43
2023-03-24T05:03:59.923Z,5.80
2023-03-24T05:06:01.660Z,7.55
2023-03-24T05:08:04.147Z,4.50
2023-03-24T05:10:06.544Z,5.18
2023-03-24T05:12:11.178Z,5.15
2023-03-24T05:14:16.192Z,8.18
2023-03-24T05:16:20.870Z,6.10
2023-03-24T05:18:22.542Z,6.95
2023-03-24T05:20:24.442Z,7.20
2023-03-24T05:22:31.530Z,9.40
2023-03-24T05:24:36.008Z,5.18
2023-03-24T05:29:05.419Z,6.03
2023-03-24T05:31:34.954Z,5.85
2023-03-24T05:33:47.560Z,6.60
2023-03-24T05:36:00.927Z,6.43
2023-03-24T05:38:12.337Z,4.63
2023-03-24T05:40:20.711Z,7.65
2023-03-24T05:42:28.278Z,5.53
2023-03-24T05:44:39.499Z,5.47
2023-03-24T05:46:52.561Z,6.20
2023-03-24T05:49:06.760Z,6.03
2023-03-24T05:51:21.254Z,7.75
2023-03-24T05:53:34.673Z,5.30
2023-03-24T05:55:47.391Z,6.47
2023-03-24T05:58:00.561Z,4.07
2023-03-24T06:00:15.785Z,8.85
2023-03-24T06:02:29.776Z,5.47
2023-03-24T06:04:51.740Z,4.68
2023-03-24T06:06:59.184Z,4.97
2023-03-24T06:09:04.816Z,3.38
2023-03-24T06:11:06.572Z,4.78
2023-03-24T06:13:09.510Z,4.53
2023-03-24T06:15:17.396Z,4.55
2023-03-24T06:17:22.240Z,4.93
2023-03-24T06:19:27.339Z,4.30
2023-03-24T06:21:32.435Z,4.40
2023-03-24T06:23:35.659Z,4.28
2023-03-24T06:27:46.257Z,4.45
2023-03-24T06:29:47.710Z,5.85
2023-03-24T06:32:08.824Z,6.18
2023-03-24T06:34:29.804Z,4.43
2023-03-24T06:36:34.807Z,4.25
2023-03-24T06:38:36.323Z,4.03
2023-03-24T06:40:41.025Z,3.28
2023-03-24T06:42:45.248Z,3.28
2023-03-24T06:44:49.405Z,4.90
2023-03-24T06:46:51.370Z,3.72
2023-03-24T06:48:55.873Z,4.63
2023-03-24T06:51:00.131Z,3.85
2023-03-24T06:53:04.649Z,5.10
2023-03-24T06:55:09.902Z,6.22
2023-03-24T06:57:11.945Z,3.85
2023-03-24T06:59:13.636Z,5.78
2023-03-24T07:01:18.091Z,4.43
2023-03-24T07:03:23.549Z,3.67
2023-03-24T07:05:25.057Z,4.93
2023-03-24T07:09:50.402Z,4.35
2023-03-24T07:11:51.963Z,4.38
2023-03-24T07:16:13.300Z,4.00
2023-03-24T07:18:19.412Z,4.70
2023-03-24T07:20:21.561Z,5.65
2023-03-24T07:22:26.051Z,4.75
2023-03-24T07:24:31.698Z,5.43
2023-03-24T07:26:33.373Z,4.23
2023-03-24T07:28:43.900Z,4.53
2023-03-24T07:30:45.537Z,4.00
2023-03-24T07:32:49.926Z,4.22
2023-03-24T07:34:54.492Z,4.85
2023-03-24T07:37:14.801Z,4.78
2023-03-24T07:43:25.024Z,5.22
2023-03-24T07:45:29.487Z,4.25
2023-03-24T07:47:31.666Z,5.15
2023-03-24T07:49:33.105Z,5.40
2023-03-24T07:51:36.651Z,4.72
2023-03-24T07:53:40.151Z,4.90
2023-03-24T07:55:44.226Z,5.18
2023-03-24T07:57:49.657Z,4.47
2023-03-24T08:00:17.901Z,3.35
2023-03-24T08:02:20.039Z,2.97
2023-03-24T08:04:24.639Z,4.32
2023-03-24T08:06:26.219Z,4.07
2023-03-24T08:08:31.649Z,3.97
2023-03-24T08:10:35.900Z,4.38
2023-03-24T08:17:01.622Z,4.47
2023-03-24T08:19:06.441Z,4.13
2023-03-24T08:21:08.257Z,4.22
2023-03-24T08:23:09.837Z,6.10
2023-03-24T08:25:14.730Z,4.28
2023-03-24T08:27:17.089Z,4.13
2023-03-24T08:29:37.801Z,3.88
2023-03-24T08:31:57.905Z,4.30
2023-03-24T08:34:05.860Z,4.05
2023-03-24T08:36:10.481Z,3.45
2023-03-24T08:38:12.699Z,2.92
2023-03-24T08:40:19.597Z,3.72
2023-03-24T08:42:24.074Z,3.22
2023-03-24T08:44:30.180Z,3.88
2023-03-24T08:46:33.338Z,3.80
2023-03-24T08:48:53.740Z,4.13
2023-03-24T08:50:55.874Z,3.95
2023-03-24T08:52:57.457Z,5.35
2023-03-24T08:54:59.045Z,5.18
2023-03-24T08:57:03.700Z,4.35
2023-03-24T08:59:06.778Z,3.55
2023-03-24T09:01:11.249Z,3.53
2023-03-24T09:03:18.513Z,4.50
2023-03-24T09:05:29.308Z,5.47
2023-03-24T09:07:38.791Z,3.17
2023-03-24T09:09:40.501Z,3.13
2023-03-24T09:11:42.066Z,4.03
2023-03-24T09:13:43.698Z,3.42
2023-03-24T09:15:49.037Z,2.20
2023-03-24T09:17:53.756Z,3.60
2023-03-24T09:19:58.381Z,2.38
2023-03-24T09:22:00.775Z,2.17
2023-03-24T09:24:05.400Z,2.67
2023-03-24T09:26:07.491Z,2.70
2023-03-24T09:28:08.897Z,2.70
2023-03-24T09:30:13.743Z,2.80
2023-03-24T09:32:15.400Z,2.00
2023-03-24T09:34:16.781Z,3.45
2023-03-24T09:36:21.553Z,3.90
2023-03-24T09:38:23.105Z,3.08
2023-03-24T09:40:37.110Z,3.00
2023-03-24T09:42:41.570Z,2.42
2023-03-24T09:44:50.183Z,3.05
2023-03-24T09:46:54.851Z,3.17
2023-03-24T09:48:59.085Z,3.70
2023-03-24T09:51:06.783Z,2.55
2023-03-24T09:53:40.450Z,2.38
2023-03-24T09:55:43.750Z,2.72
2023-03-24T09:57:47.078Z,3.80
2023-03-24T09:59:51.124Z,2.85
2023-03-24T10:01:56.593Z,2.70
2023-03-24T10:03:59.361Z,2.40
2023-03-24T10:06:15.773Z,2.75
2023-03-24T10:08:22.976Z,2.72
2023-03-24T10:10:36.597Z,2.25
2023-03-24T10:12:45.288Z,1.75
2023-03-24T10:15:06.189Z,2.63
2023-03-24T10:17:20.934Z,2.65
2023-03-24T10:19:37.275Z,2.13
2023-03-24T10:21:39.507Z,2.90
2023-03-24T10:23:48.520Z,3.83
2023-03-24T10:26:04.831Z,2.00
2023-03-24T10:28:17.242Z,2.60
2023-03-24T10:30:23.437Z,2.67
2023-03-24T10:32:26.238Z,3.33
2023-03-24T10:34:29.632Z,3.83
2023-03-24T10:36:34.154Z,4.95
2023-03-24T10:38:38.599Z,4.47
2023-03-24T10:40:42.964Z,3.22
2023-03-24T10:42:45.891Z,3.25
2023-03-24T10:44:51.061Z,4.38
2023-03-24T10:46:53.919Z,4.28
2023-03-24T10:49:08.483Z,4.35
2023-03-24T10:53:20.743Z,4.13
2023-03-24T10:55:43.410Z,4.13
2023-03-24T10:57:50.028Z,3.30
2023-03-24T11:00:00.468Z,4.07
2023-03-24T11:02:10.463Z,4.40
2023-03-24T11:04:14.273Z,3.92
2023-03-24T11:06:20.119Z,3.80
2023-03-24T11:08:25.916Z,3.15
2023-03-24T11:10:27.573Z,5.28
2023-03-24T11:12:32.700Z,3.40
2023-03-24T11:15:07.524Z,3.45
2023-03-24T11:17:20.578Z,4.20
2023-03-24T11:19:23.160Z,4.55
2023-03-24T11:21:32.002Z,4.43
2023-03-24T11:23:34.871Z,4.30
2023-03-24T11:25:40.685Z,5.10
2023-03-24T11:27:45.045Z,4.55
2023-03-24T11:29:51.781Z,5.57
2023-03-24T11:31:58.421Z,4.68
2023-03-24T11:34:07.627Z,3.65
2023-03-24T11:36:28.141Z,3.72
2023-03-24T11:38:34.648Z,3.97
2023-03-24T11:41:09.928Z,4.72
2023-03-24T11:43:27.993Z,3.83
2023-03-24T11:46:02.584Z,4.55
2023-03-24T11:48:24.460Z,4.28
2023-03-24T11:50:32.403Z,3.22
2023-03-24T11:53:11.518Z,2.50
2023-03-24T11:55:59.231Z,4.13
2023-03-24T11:58:11.695Z,3.20
2023-03-24T12:00:23.388Z,2.13
2023-03-24T12:02:48.914Z,2.63
2023-03-24T12:05:20.318Z,3.10
2023-03-24T12:07:41.797Z,3.47
2023-03-24T12:09:50.798Z,4.28
2023-03-24T12:11:54.021Z,3.75
2023-03-24T12:14:01.377Z,3.05
2023-03-24T12:16:22.436Z,3.75
2023-03-24T12:18:39.596Z,4.22
2023-03-24T12:20:47.308Z,3.20
2023-03-24T12:23:00.523Z,4.07
2023-03-24T12:25:28.499Z,3.58
2023-03-24T12:27:40.296Z,4.47
2023-03-24T12:29:44.400Z,4.30
2023-03-24T12:32:00.584Z,4.88
2023-03-24T12:34:20.684Z,3.20
2023-03-24T12:36:37.178Z,3.42
2023-03-24T12:38:54.168Z,4.15
2023-03-24T12:40:58.715Z,4.03
2023-03-24T12:43:09.544Z,2.28
2023-03-24T12:45:17.002Z,2.85
2023-03-24T12:47:27.197Z,2.00
2023-03-24T12:49:53.860Z,3.15
2023-03-24T12:52:15.196Z,2.30
2023-03-24T12:54:29.937Z,2.20
2023-03-24T12:56:35.702Z,2.25
2023-03-24T12:58:43.124Z,2.28
2023-03-24T13:00:57.058Z,2.45
2023-03-24T13:03:04.922Z,2.17
2023-03-24T13:05:37.932Z,3.22
2023-03-24T13:07:44.127Z,2.08
2023-03-24T13:09:46.209Z,2.30
2023-03-24T13:11:55.809Z,2.13
2023-03-24T13:14:18.912Z,2.10
2023-03-24T13:16:23.034Z,1.65
2023-03-24T13:18:29.792Z,1.67
2023-03-24T13:20:53.860Z,1.83
2023-03-24T13:22:59.614Z,2.15
2023-03-24T13:25:05.012Z,2.67
2023-03-24T13:27:23.669Z,1.67
2023-03-24T13:29:38.338Z,3.13
2023-03-24T13:32:09.857Z,1.85
2023-03-24T13:34:48.952Z,2.78
2023-03-24T13:36:52.841Z,2.88
2023-03-24T13:38:56.208Z,2.47
2023-03-24T13:41:05.010Z,2.75
2023-03-24T13:43:10.676Z,3.50
2023-03-24T13:45:30.131Z,2.72
2023-03-24T13:47:53.800Z,3.20
2023-03-24T13:50:16.009Z,3.45
2023-03-24T13:52:22.972Z,3.78
2023-03-24T13:54:27.324Z,2.90
2023-03-24T13:56:34.089Z,3.55
2023-03-24T13:59:04.877Z,3.67
2023-03-24T14:01:09.721Z,3.47
2023-03-24T14:03:17.221Z,2.97
2023-03-24T14:05:40.539Z,3.10
2023-03-24T14:07:46.165Z,2.25
2023-03-24T14:09:57.712Z,3.50
2023-03-24T14:12:19.591Z,3.97
2023-03-24T14:14:27.566Z,2.58
2023-03-24T14:16:31.824Z,3.15
2023-03-24T14:18:37.703Z,2.95
2023-03-24T14:20:58.304Z,2.72
2023-03-24T14:23:03.553Z,2.78
2023-03-24T14:25:17.107Z,2.78
2023-03-24T14:27:23.842Z,2.30
2023-03-24T14:29:47.379Z,3.10
2023-03-24T14:31:50.868Z,3.08
2023-03-24T14:34:02.242Z,3.05
2023-03-24T14:36:27.255Z,3.47
2023-03-24T14:38:28.752Z,2.65
2023-03-24T14:40:32.242Z,2.97
2023-03-24T14:42:56.110Z,2.83
2023-03-24T14:45:00.659Z,3.03
2023-03-24T14:47:11.360Z,3.35
2023-03-24T14:49:26.063Z,3.45
2023-03-24T14:51:43.633Z,4.85
2023-03-24T14:54:06.891Z,3.63
2023-03-24T14:56:31.920Z,4.85
2023-03-24T14:58:41.100Z,4.07
2023-03-24T15:01:07.190Z,3.40
2023-03-24T15:03:21.473Z,3.72
2023-03-24T15:05:33.974Z,3.17
2023-03-24T15:08:02.685Z,2.42
2023-03-24T15:10:20.767Z,3.55
2023-03-24T15:12:27.570Z,3.75
2023-03-24T15:14:50.216Z,4.53
2023-03-24T15:17:21.083Z,2.88
2023-03-24T15:19:26.809Z,3.58
2023-03-24T15:21:32.947Z,4.22
2023-03-24T15:23:34.604Z,3.03
2023-03-24T15:25:41.460Z,3.88
2023-03-24T15:28:01.440Z,4.18
2023-03-24T15:30:08.944Z,3.70
2023-03-24T15:32:21.082Z,3.58
2023-03-24T15:34:25.392Z,3.88
2023-03-24T15:36:28.055Z,4.13
2023-03-24T15:38:33.569Z,3.63
2023-03-24T15:40:36.490Z,3.53
2023-03-24T15:42:41.730Z,3.08
2023-03-24T15:44:43.417Z,2.95
2023-03-24T15:46:48.234Z,3.50
2023-03-24T15:49:16.485Z,3.10
2023-03-24T15:51:18.029Z,2.95
2023-03-24T15:53:19.432Z,5.63
2023-03-24T15:55:31.955Z,3.30
2023-03-24T15:57:53.622Z,3.10
2023-03-24T15:59:58.438Z,3.35
2023-03-24T16:02:10.781Z,2.85
2023-03-24T16:04:16.877Z,3.67
2023-03-24T16:06:26.989Z,5.57
2023-03-24T16:08:41.203Z,3.38
2023-03-24T16:10:55.470Z,4.38
2023-03-24T16:13:05.593Z,4.28
2023-03-24T16:15:12.955Z,4.00
2023-03-24T16:17:17.236Z,4.53
2023-03-24T16:19:21.657Z,4.15
2023-03-24T16:21:27.813Z,4.53
2023-03-24T16:23:29.942Z,4.00
2023-03-24T16:25:32.622Z,3.15
2023-03-24T16:27:52.693Z,3.38
2023-03-24T16:29:54.171Z,2.78
2023-03-24T16:31:58.808Z,2.92
2023-03-24T16:34:03.351Z,5.55
2023-03-24T16:36:05.172Z,2.38
2023-03-24T16:38:12.590Z,3.63
2023-03-24T16:40:22.424Z,4.07
2023-03-24T16:42:27.136Z,3.80
2023-03-24T16:44:28.659Z,3.58
2023-03-24T16:46:34.083Z,2.58
2023-03-24T16:48:38.248Z,2.80
2023-03-24T16:50:58.332Z,2.20
2023-03-24T16:53:04.679Z,5.30
2023-03-24T16:55:06.333Z,3.10
2023-03-24T16:57:10.622Z,3.42
2023-03-24T16:59:15.625Z,4.30
2023-03-24T17:01:27.282Z,3.15
2023-03-24T17:03:31.999Z,3.22
2023-03-24T17:05:39.299Z,4.63
2023-03-24T17:07:43.446Z,3.25
2023-03-24T17:09:50.032Z,3.25
2023-03-24T17:11:52.621Z,2.95
2023-03-24T17:13:54.488Z,4.00
2023-03-24T17:15:58.732Z,2.25
2023-03-24T17:18:00.918Z,1.98
2023-03-24T17:20:05.858Z,2.88
2023-03-24T17:22:07.367Z,1.85
2023-03-24T17:24:10.776Z,3.70
2023-03-24T17:26:12.468Z,2.83
2023-03-24T17:28:14.834Z,1.52
2023-03-24T17:30:17.916Z,1.40
2023-03-24T17:32:21.152Z,1.33
2023-03-24T17:34:23.742Z,1.52
2023-03-24T17:36:25.375Z,1.45
2023-03-24T17:38:32.767Z,1.58
2023-03-24T17:40:34.354Z,1.65
2023-03-24T17:42:36.477Z,2.60
2023-03-24T17:44:38.124Z,2.22
2023-03-24T17:46:39.708Z,1.98
2023-03-24T17:48:42.900Z,3.03
2023-03-24T17:50:49.333Z,2.33
2023-03-24T17:53:15.117Z,3.40
2023-03-24T17:55:35.167Z,2.88
2023-03-24T17:57:56.945Z,3.58
2023-03-24T17:59:58.644Z,2.72
2023-03-24T18:02:00.497Z,4.40
2023-03-24T18:04:05.230Z,3.05
2023-03-24T18:06:11.941Z,3.80
2023-03-24T18:08:13.630Z,3.80
2023-03-24T18:10:18.664Z,3.72
2023-03-24T18:12:21.121Z,3.17
2023-03-24T18:14:41.262Z,3.17
2023-03-24T18:16:42.798Z,3.60
2023-03-24T18:20:51.447Z,4.20
2023-03-24T18:22:53.232Z,3.03
2023-03-24T18:24:58.424Z,3.90
2023-03-24T18:27:03.889Z,2.35
2023-03-24T18:29:08.329Z,3.97
2023-03-24T18:31:10.594Z,3.08
2023-03-24T18:33:15.961Z,3.80
2023-03-24T18:35:20.465Z,3.75
2023-03-24T18:37:25.203Z,5.72
2023-03-24T18:41:30.809Z,3.10
2023-03-24T18:43:37.971Z,3.53
2023-03-24T18:45:39.657Z,4.05
2023-03-24T18:47:41.151Z,4.88
2023-03-24T18:49:42.783Z,3.45
2023-03-24T18:51:45.289Z,5.03
2023-03-24T18:53:47.709Z,4.50
2023-03-24T18:55:50.326Z,4.35
2023-03-24T18:57:55.011Z,5.65
2023-03-24T19:00:00.895Z,4.25
2023-03-24T19:02:02.434Z,4.03
2023-03-24T19:04:08.152Z,4.38
2023-03-24T19:06:10.990Z,4.43
2023-03-24T19:08:16.094Z,4.28
2023-03-24T19:10:20.288Z,4.13
2023-03-24T19:12:21.678Z,3.70
2023-03-24T19:14:26.530Z,3.97
2023-03-24T19:16:28.185Z,4.85
2023-03-24T19:18:32.476Z,3.50
2023-03-24T19:20:35.127Z,4.10
2023-03-24T19:22:41.586Z,5.20
2023-03-24T19:24:45.620Z,4.32
2023-03-24T19:26:47.022Z,5.90
2023-03-24T19:28:51.831Z,4.72
2023-03-24T19:30:53.694Z,4.03
2023-03-24T19:32:58.293Z,3.65
2023-03-24T19:34:59.936Z,3.78
2023-03-24T19:37:04.100Z,3.75
2023-03-24T19:41:11.211Z,4.93
2023-03-24T19:43:15.389Z,3.63
2023-03-24T19:45:17.651Z,4.82
2023-03-24T19:47:38.023Z,3.35
2023-03-24T19:49:42.350Z,4.30
2023-03-24T19:51:47.352Z,3.70
2023-03-24T19:53:49.074Z,3.25
2023-03-24T19:55:50.979Z,3.00
2023-03-24T19:57:52.666Z,3.38
2023-03-24T19:59:59.444Z,3.53
2023-03-24T20:02:03.586Z,5.07
2023-03-24T20:04:07.963Z,3.50
2023-03-24T20:06:12.573Z,3.35
2023-03-24T20:08:19.214Z,4.82
2023-03-24T20:10:21.670Z,5.53
2023-03-24T20:12:27.066Z,4.18
2023-03-24T20:14:31.864Z,3.10
2023-03-24T20:16:51.880Z,3.40
2023-03-24T20:18:56.585Z,4.25
2023-03-24T20:21:01.584Z,3.70
2023-03-24T20:23:22.458Z,3.90
2023-03-24T20:25:27.230Z,3.88
2023-03-24T20:27:28.783Z,4.70
2023-03-24T20:29:30.384Z,5.22
2023-03-24T20:31:32.324Z,9.27
2023-03-24T20:33:36.554Z,4.32
2023-03-24T20:35:39.795Z,4.47
2023-03-24T20:37:44.411Z,3.90
2023-03-24T20:39:48.705Z,5.00
2023-03-24T20:41:50.142Z,4.75
2023-03-24T20:44:10.306Z,3.60
2023-03-24T20:46:16.517Z,3.40
2023-03-24T20:48:21.394Z,4.00
2023-03-24T20:50:25.858Z,4.97
2023-03-24T20:52:28.594Z,6.63
2023-03-24T20:54:30.031Z,3.65
2023-03-24T20:56:42.573Z,4.28
2023-03-24T20:58:46.145Z,4.15
2023-03-24T21:00:54.728Z,4.15
2023-03-24T21:03:09.561Z,4.35
2023-03-24T21:05:26.099Z,4.75
2023-03-24T21:07:33.970Z,4.88
2023-03-24T21:09:41.376Z,5.18
2023-03-24T21:11:48.703Z,4.82
2023-03-24T21:13:57.891Z,3.38
2023-03-24T21:16:08.863Z,3.97
2023-03-24T21:18:17.284Z,4.75
2023-03-24T21:20:31.346Z,4.30
2023-03-24T21:22:58.520Z,4.80
2023-03-24T21:25:07.836Z,3.75
2023-03-24T21:29:39.018Z,5.55
2023-03-24T21:31:51.701Z,3.42
2023-03-24T21:34:00.897Z,5.25
2023-03-24T21:36:15.822Z,4.05
2023-03-24T21:38:18.937Z,4.32
2023-03-24T21:40:21.943Z,3.58
2023-03-24T21:42:24.050Z,2.88
2023-03-24T21:44:25.506Z,5.30
2023-03-24T21:46:27.893Z,1.92
2023-03-24T21:48:40.086Z,1.50
2023-03-24T21:51:01.137Z,1.95
2023-03-24T21:53:14.828Z,1.25
2023-03-24T21:55:20.979Z,1.23
2023-03-24T21:57:28.243Z,1.30
2023-03-24T21:59:48.422Z,1.38
2023-03-24T22:01:52.280Z,1.52
2023-03-24T22:03:58.840Z,1.38
2023-03-24T22:06:00.625Z,1.88
2023-03-24T22:08:02.545Z,3.28
2023-03-24T22:10:05.777Z,2.45
2023-03-24T22:12:10.512Z,2.35
2023-03-24T22:16:17.619Z,3.95
2023-03-24T22:18:22.860Z,2.67
2023-03-24T22:20:31.889Z,3.92
2023-03-24T22:24:34.884Z,3.90
2023-03-24T22:26:36.401Z,3.72
